sensor_id;sensor_type;location;lat;lon;timestamp;P1;durP1;ratioP1;P2;durP2;ratioP2
18752;SDS011;9505;50.882;5.350;2023-06-14T00:01:17;33.58;;;8.05;;
18752;SDS011;9505;50.882;5.350;2023-06-14T00:03:45;39.28;;;8.32;;
18752;SDS011;9505;50.882;5.350;2023-06-14T00:06:12;35.30;;;8.25;;
18752;SDS011;9505;50.882;5.350;2023-06-14T00:08:38;34.80;;;8.00;;
18752;SDS011;9505;50.882;5.350;2023-06-14T00:11:05;33.05;;;7.63;;
18752;SDS011;9505;50.882;5.350;2023-06-14T00:13:30;35.75;;;7.63;;
18752;SDS011;9505;50.882;5.350;2023-06-14T00:15:56;32.53;;;7.30;;
18752;SDS011;9505;50.882;5.350;2023-06-14T00:18:22;36.20;;;7.70;;
18752;SDS011;9505;50.882;5.350;2023-06-14T00:20:49;37.40;;;8.60;;
18752;SDS011;9505;50.882;5.350;2023-06-14T00:23:15;36.70;;;8.27;;
18752;SDS011;9505;50.882;5.350;2023-06-14T00:25:41;36.92;;;8.48;;
18752;SDS011;9505;50.882;5.350;2023-06-14T00:28:07;36.80;;;8.77;;
18752;SDS011;9505;50.882;5.350;2023-06-14T00:30:32;34.75;;;8.63;;
18752;SDS011;9505;50.882;5.350;2023-06-14T00:32:58;34.70;;;8.25;;
18752;SDS011;9505;50.882;5.350;2023-06-14T00:35:24;33.00;;;8.10;;
18752;SDS011;9505;50.882;5.350;2023-06-14T00:37:50;29.60;;;7.63;;
18752;SDS011;9505;50.882;5.350;2023-06-14T00:40:16;37.92;;;9.38;;
18752;SDS011;9505;50.882;5.350;2023-06-14T00:42:41;34.50;;;8.07;;
18752;SDS011;9505;50.882;5.350;2023-06-14T00:45:07;33.75;;;8.10;;
18752;SDS011;9505;50.882;5.350;2023-06-14T00:47:34;34.40;;;8.38;;
18752;SDS011;9505;50.882;5.350;2023-06-14T00:50:02;36.80;;;8.15;;
18752;SDS011;9505;50.882;5.350;2023-06-14T00:52:31;32.00;;;8.20;;
18752;SDS011;9505;50.882;5.350;2023-06-14T00:54:57;35.85;;;9.02;;
18752;SDS011;9505;50.882;5.350;2023-06-14T00:57:23;35.42;;;8.70;;
18752;SDS011;9505;50.882;5.350;2023-06-14T00:59:49;33.75;;;8.43;;
18752;SDS011;9505;50.882;5.350;2023-06-14T01:02:15;34.78;;;8.98;;
18752;SDS011;9505;50.882;5.350;2023-06-14T01:04:42;33.83;;;8.98;;
18752;SDS011;9505;50.882;5.350;2023-06-14T01:07:12;28.52;;;8.50;;
18752;SDS011;9505;50.882;5.350;2023-06-14T01:15:04;27.38;;;8.07;;
18752;SDS011;9505;50.882;5.350;2023-06-14T01:17:32;30.05;;;8.45;;
18752;SDS011;9505;50.882;5.350;2023-06-14T01:20:01;30.27;;;8.35;;
18752;SDS011;9505;50.882;5.350;2023-06-14T01:22:28;35.00;;;10.20;;
18752;SDS011;9505;50.882;5.350;2023-06-14T01:24:54;33.67;;;9.40;;
18752;SDS011;9505;50.882;5.350;2023-06-14T01:27:23;30.65;;;9.20;;
18752;SDS011;9505;50.882;5.350;2023-06-14T01:29:54;32.15;;;8.75;;
18752;SDS011;9505;50.882;5.350;2023-06-14T01:32:23;30.73;;;8.98;;
18752;SDS011;9505;50.882;5.350;2023-06-14T01:34:50;35.65;;;9.65;;
18752;SDS011;9505;50.882;5.350;2023-06-14T01:37:15;30.90;;;8.70;;
18752;SDS011;9505;50.882;5.350;2023-06-14T01:39:43;31.55;;;8.50;;
18752;SDS011;9505;50.882;5.350;2023-06-14T01:42:10;36.80;;;9.52;;
18752;SDS011;9505;50.882;5.350;2023-06-14T01:44:37;40.13;;;10.60;;
18752;SDS011;9505;50.882;5.350;2023-06-14T01:47:03;32.72;;;9.55;;
18752;SDS011;9505;50.882;5.350;2023-06-14T01:49:29;40.63;;;10.98;;
18752;SDS011;9505;50.882;5.350;2023-06-14T01:51:58;45.97;;;11.32;;
18752;SDS011;9505;50.882;5.350;2023-06-14T01:54:23;31.83;;;9.93;;
18752;SDS011;9505;50.882;5.350;2023-06-14T01:56:50;40.60;;;11.13;;
18752;SDS011;9505;50.882;5.350;2023-06-14T01:59:16;34.83;;;9.80;;
18752;SDS011;9505;50.882;5.350;2023-06-14T02:01:41;31.27;;;9.32;;
18752;SDS011;9505;50.882;5.350;2023-06-14T02:04:07;38.97;;;10.02;;
18752;SDS011;9505;50.882;5.350;2023-06-14T02:06:33;39.97;;;10.77;;
18752;SDS011;9505;50.882;5.350;2023-06-14T02:09:00;31.50;;;9.48;;
18752;SDS011;9505;50.882;5.350;2023-06-14T02:11:26;37.53;;;9.93;;
18752;SDS011;9505;50.882;5.350;2023-06-14T02:13:52;38.15;;;10.60;;
18752;SDS011;9505;50.882;5.350;2023-06-14T02:16:17;28.98;;;9.63;;
18752;SDS011;9505;50.882;5.350;2023-06-14T02:18:43;33.42;;;10.32;;
18752;SDS011;9505;50.882;5.350;2023-06-14T02:21:09;34.55;;;10.25;;
18752;SDS011;9505;50.882;5.350;2023-06-14T02:23:34;36.75;;;10.45;;
18752;SDS011;9505;50.882;5.350;2023-06-14T02:26:00;31.13;;;10.13;;
18752;SDS011;9505;50.882;5.350;2023-06-14T02:28:25;38.47;;;11.30;;
18752;SDS011;9505;50.882;5.350;2023-06-14T02:30:51;37.28;;;11.18;;
18752;SDS011;9505;50.882;5.350;2023-06-14T02:33:17;33.50;;;10.38;;
18752;SDS011;9505;50.882;5.350;2023-06-14T02:35:42;39.00;;;10.63;;
18752;SDS011;9505;50.882;5.350;2023-06-14T02:38:08;34.03;;;10.23;;
18752;SDS011;9505;50.882;5.350;2023-06-14T02:40:33;36.20;;;10.60;;
18752;SDS011;9505;50.882;5.350;2023-06-14T02:42:59;36.70;;;10.55;;
18752;SDS011;9505;50.882;5.350;2023-06-14T02:45:25;36.67;;;10.80;;
18752;SDS011;9505;50.882;5.350;2023-06-14T02:47:50;36.85;;;11.13;;
18752;SDS011;9505;50.882;5.350;2023-06-14T02:50:16;34.05;;;10.77;;
18752;SDS011;9505;50.882;5.350;2023-06-14T02:52:42;45.95;;;11.80;;
18752;SDS011;9505;50.882;5.350;2023-06-14T02:55:09;39.05;;;11.23;;
18752;SDS011;9505;50.882;5.350;2023-06-14T02:57:35;41.85;;;11.63;;
18752;SDS011;9505;50.882;5.350;2023-06-14T03:00:01;36.55;;;11.07;;
18752;SDS011;9505;50.882;5.350;2023-06-14T03:02:26;38.22;;;10.60;;
18752;SDS011;9505;50.882;5.350;2023-06-14T03:04:52;42.42;;;10.80;;
18752;SDS011;9505;50.882;5.350;2023-06-14T03:07:18;33.10;;;9.73;;
18752;SDS011;9505;50.882;5.350;2023-06-14T03:09:44;45.80;;;11.88;;
18752;SDS011;9505;50.882;5.350;2023-06-14T03:12:10;31.25;;;10.60;;
18752;SDS011;9505;50.882;5.350;2023-06-14T03:14:36;36.35;;;11.25;;
18752;SDS011;9505;50.882;5.350;2023-06-14T03:17:02;37.97;;;10.75;;
18752;SDS011;9505;50.882;5.350;2023-06-14T03:19:29;33.92;;;10.15;;
18752;SDS011;9505;50.882;5.350;2023-06-14T03:21:55;37.72;;;10.80;;
18752;SDS011;9505;50.882;5.350;2023-06-14T03:24:24;40.80;;;11.32;;
18752;SDS011;9505;50.882;5.350;2023-06-14T03:26:53;38.45;;;10.95;;
18752;SDS011;9505;50.882;5.350;2023-06-14T03:29:19;37.72;;;10.80;;
18752;SDS011;9505;50.882;5.350;2023-06-14T03:31:58;41.47;;;11.23;;
18752;SDS011;9505;50.882;5.350;2023-06-14T03:34:28;37.72;;;11.55;;
18752;SDS011;9505;50.882;5.350;2023-06-14T03:36:54;38.40;;;11.02;;
18752;SDS011;9505;50.882;5.350;2023-06-14T03:39:19;39.40;;;10.98;;
18752;SDS011;9505;50.882;5.350;2023-06-14T03:41:45;38.33;;;12.02;;
18752;SDS011;9505;50.882;5.350;2023-06-14T03:44:11;34.20;;;11.05;;
18752;SDS011;9505;50.882;5.350;2023-06-14T03:46:39;42.25;;;11.93;;
18752;SDS011;9505;50.882;5.350;2023-06-14T03:49:05;39.58;;;11.13;;
18752;SDS011;9505;50.882;5.350;2023-06-14T03:51:30;37.67;;;11.10;;
18752;SDS011;9505;50.882;5.350;2023-06-14T03:53:56;35.75;;;10.98;;
18752;SDS011;9505;50.882;5.350;2023-06-14T03:56:21;34.50;;;10.75;;
18752;SDS011;9505;50.882;5.350;2023-06-14T03:58:47;44.35;;;12.07;;
18752;SDS011;9505;50.882;5.350;2023-06-14T04:01:13;37.03;;;11.02;;
18752;SDS011;9505;50.882;5.350;2023-06-14T04:03:39;39.67;;;11.75;;
18752;SDS011;9505;50.882;5.350;2023-06-14T04:06:05;31.83;;;10.95;;
18752;SDS011;9505;50.882;5.350;2023-06-14T04:08:31;36.95;;;11.52;;
18752;SDS011;9505;50.882;5.350;2023-06-14T04:10:57;36.75;;;11.20;;
18752;SDS011;9505;50.882;5.350;2023-06-14T04:13:22;36.40;;;11.52;;
18752;SDS011;9505;50.882;5.350;2023-06-14T04:15:48;41.45;;;12.13;;
18752;SDS011;9505;50.882;5.350;2023-06-14T04:18:14;43.17;;;11.43;;
18752;SDS011;9505;50.882;5.350;2023-06-14T04:20:39;39.90;;;11.52;;
18752;SDS011;9505;50.882;5.350;2023-06-14T04:23:14;37.33;;;11.25;;
18752;SDS011;9505;50.882;5.350;2023-06-14T04:25:43;38.70;;;11.32;;
18752;SDS011;9505;50.882;5.350;2023-06-14T04:28:13;37.70;;;11.40;;
18752;SDS011;9505;50.882;5.350;2023-06-14T04:30:43;39.42;;;11.57;;
18752;SDS011;9505;50.882;5.350;2023-06-14T04:33:09;40.45;;;10.68;;
18752;SDS011;9505;50.882;5.350;2023-06-14T04:35:35;39.90;;;11.23;;
18752;SDS011;9505;50.882;5.350;2023-06-14T04:38:02;30.90;;;10.25;;
18752;SDS011;9505;50.882;5.350;2023-06-14T04:40:34;36.38;;;11.20;;
18752;SDS011;9505;50.882;5.350;2023-06-14T04:43:01;38.58;;;11.48;;
18752;SDS011;9505;50.882;5.350;2023-06-14T04:45:30;37.72;;;12.07;;
18752;SDS011;9505;50.882;5.350;2023-06-14T04:47:58;33.63;;;10.27;;
18752;SDS011;9505;50.882;5.350;2023-06-14T04:50:24;37.70;;;11.30;;
18752;SDS011;9505;50.882;5.350;2023-06-14T04:52:50;41.00;;;11.65;;
18752;SDS011;9505;50.882;5.350;2023-06-14T04:55:16;34.88;;;10.65;;
18752;SDS011;9505;50.882;5.350;2023-06-14T04:57:44;39.55;;;12.73;;
18752;SDS011;9505;50.882;5.350;2023-06-14T05:00:09;35.67;;;10.88;;
18752;SDS011;9505;50.882;5.350;2023-06-14T05:02:36;37.03;;;11.23;;
18752;SDS011;9505;50.882;5.350;2023-06-14T05:05:03;33.33;;;10.05;;
18752;SDS011;9505;50.882;5.350;2023-06-14T05:07:32;40.58;;;10.80;;
18752;SDS011;9505;50.882;5.350;2023-06-14T05:09:58;35.22;;;10.95;;
18752;SDS011;9505;50.882;5.350;2023-06-14T05:12:24;31.55;;;10.20;;
18752;SDS011;9505;50.882;5.350;2023-06-14T05:14:50;36.67;;;11.23;;
18752;SDS011;9505;50.882;5.350;2023-06-14T05:17:15;32.95;;;10.63;;
18752;SDS011;9505;50.882;5.350;2023-06-14T05:19:42;39.28;;;11.25;;
18752;SDS011;9505;50.882;5.350;2023-06-14T05:22:08;36.60;;;11.25;;
18752;SDS011;9505;50.882;5.350;2023-06-14T05:24:33;32.25;;;10.35;;
18752;SDS011;9505;50.882;5.350;2023-06-14T05:26:59;44.95;;;11.73;;
18752;SDS011;9505;50.882;5.350;2023-06-14T05:29:25;39.53;;;11.00;;
18752;SDS011;9505;50.882;5.350;2023-06-14T05:31:52;37.63;;;10.45;;
18752;SDS011;9505;50.882;5.350;2023-06-14T05:34:18;30.88;;;10.00;;
18752;SDS011;9505;50.882;5.350;2023-06-14T05:36:43;35.45;;;10.50;;
18752;SDS011;9505;50.882;5.350;2023-06-14T05:39:09;37.58;;;9.88;;
18752;SDS011;9505;50.882;5.350;2023-06-14T05:41:35;50.33;;;9.85;;
18752;SDS011;9505;50.882;5.350;2023-06-14T05:44:00;43.90;;;10.02;;
18752;SDS011;9505;50.882;5.350;2023-06-14T05:46:26;35.65;;;8.38;;
18752;SDS011;9505;50.882;5.350;2023-06-14T05:48:53;37.03;;;8.85;;
18752;SDS011;9505;50.882;5.350;2023-06-14T05:51:19;30.17;;;7.97;;
18752;SDS011;9505;50.882;5.350;2023-06-14T05:53:45;37.50;;;9.48;;
18752;SDS011;9505;50.882;5.350;2023-06-14T05:56:14;27.63;;;8.10;;
18752;SDS011;9505;50.882;5.350;2023-06-14T05:58:42;30.67;;;8.52;;
18752;SDS011;9505;50.882;5.350;2023-06-14T06:01:08;39.92;;;9.05;;
18752;SDS011;9505;50.882;5.350;2023-06-14T06:03:34;28.30;;;8.00;;
18752;SDS011;9505;50.882;5.350;2023-06-14T06:05:59;30.30;;;7.80;;
18752;SDS011;9505;50.882;5.350;2023-06-14T06:08:26;27.85;;;9.10;;
18752;SDS011;9505;50.882;5.350;2023-06-14T06:10:52;38.95;;;9.43;;
18752;SDS011;9505;50.882;5.350;2023-06-14T06:13:17;28.95;;;8.05;;
18752;SDS011;9505;50.882;5.350;2023-06-14T06:15:44;27.27;;;8.32;;
18752;SDS011;9505;50.882;5.350;2023-06-14T06:18:09;31.65;;;8.45;;
18752;SDS011;9505;50.882;5.350;2023-06-14T06:20:35;31.13;;;8.35;;
18752;SDS011;9505;50.882;5.350;2023-06-14T06:23:01;28.15;;;8.63;;
18752;SDS011;9505;50.882;5.350;2023-06-14T06:25:27;29.08;;;8.38;;
18752;SDS011;9505;50.882;5.350;2023-06-14T06:27:54;30.67;;;8.38;;
18752;SDS011;9505;50.882;5.350;2023-06-14T06:30:21;28.23;;;8.18;;
18752;SDS011;9505;50.882;5.350;2023-06-14T06:32:47;33.10;;;8.23;;
18752;SDS011;9505;50.882;5.350;2023-06-14T06:35:13;26.98;;;7.82;;
18752;SDS011;9505;50.882;5.350;2023-06-14T06:37:39;29.77;;;8.15;;
18752;SDS011;9505;50.882;5.350;2023-06-14T06:40:06;33.53;;;8.15;;
18752;SDS011;9505;50.882;5.350;2023-06-14T06:42:33;39.83;;;9.38;;
18752;SDS011;9505;50.882;5.350;2023-06-14T06:44:58;30.00;;;8.20;;
18752;SDS011;9505;50.882;5.350;2023-06-14T06:47:24;33.35;;;8.32;;
18752;SDS011;9505;50.882;5.350;2023-06-14T06:49:50;30.42;;;8.23;;
18752;SDS011;9505;50.882;5.350;2023-06-14T06:52:16;27.83;;;7.65;;
18752;SDS011;9505;50.882;5.350;2023-06-14T06:54:41;32.80;;;8.35;;
18752;SDS011;9505;50.882;5.350;2023-06-14T06:57:07;27.80;;;8.10;;
18752;SDS011;9505;50.882;5.350;2023-06-14T06:59:34;29.20;;;8.02;;
18752;SDS011;9505;50.882;5.350;2023-06-14T07:02:00;30.13;;;8.00;;
18752;SDS011;9505;50.882;5.350;2023-06-14T07:04:26;31.27;;;8.27;;
18752;SDS011;9505;50.882;5.350;2023-06-14T07:06:51;29.88;;;8.52;;
18752;SDS011;9505;50.882;5.350;2023-06-14T07:09:17;24.33;;;7.63;;
18752;SDS011;9505;50.882;5.350;2023-06-14T07:11:44;34.63;;;7.75;;
18752;SDS011;9505;50.882;5.350;2023-06-14T07:14:11;28.98;;;8.00;;
18752;SDS011;9505;50.882;5.350;2023-06-14T07:16:37;24.50;;;7.40;;
18752;SDS011;9505;50.882;5.350;2023-06-14T07:19:03;32.50;;;8.63;;
18752;SDS011;9505;50.882;5.350;2023-06-14T07:21:28;27.65;;;7.28;;
18752;SDS011;9505;50.882;5.350;2023-06-14T07:23:54;34.97;;;8.77;;
18752;SDS011;9505;50.882;5.350;2023-06-14T07:26:20;32.33;;;7.60;;
18752;SDS011;9505;50.882;5.350;2023-06-14T07:28:46;34.47;;;8.07;;
18752;SDS011;9505;50.882;5.350;2023-06-14T07:31:13;43.30;;;8.80;;
18752;SDS011;9505;50.882;5.350;2023-06-14T07:33:44;33.63;;;8.45;;
18752;SDS011;9505;50.882;5.350;2023-06-14T07:36:10;31.00;;;7.88;;
18752;SDS011;9505;50.882;5.350;2023-06-14T07:38:35;31.63;;;7.57;;
18752;SDS011;9505;50.882;5.350;2023-06-14T07:41:01;36.63;;;7.45;;
18752;SDS011;9505;50.882;5.350;2023-06-14T07:43:27;30.85;;;6.88;;
18752;SDS011;9505;50.882;5.350;2023-06-14T07:45:53;31.60;;;7.70;;
18752;SDS011;9505;50.882;5.350;2023-06-14T07:48:18;26.17;;;7.18;;
18752;SDS011;9505;50.882;5.350;2023-06-14T07:50:44;39.25;;;8.32;;
18752;SDS011;9505;50.882;5.350;2023-06-14T07:53:10;34.15;;;7.30;;
18752;SDS011;9505;50.882;5.350;2023-06-14T07:55:36;30.50;;;6.70;;
18752;SDS011;9505;50.882;5.350;2023-06-14T07:58:08;33.70;;;6.60;;
18752;SDS011;9505;50.882;5.350;2023-06-14T08:00:33;28.88;;;7.00;;
18752;SDS011;9505;50.882;5.350;2023-06-14T08:02:59;35.65;;;7.03;;
18752;SDS011;9505;50.882;5.350;2023-06-14T08:05:25;31.92;;;7.45;;
18752;SDS011;9505;50.882;5.350;2023-06-14T08:07:51;32.97;;;7.47;;
18752;SDS011;9505;50.882;5.350;2023-06-14T08:10:17;31.65;;;6.78;;
18752;SDS011;9505;50.882;5.350;2023-06-14T08:12:42;40.05;;;7.25;;
18752;SDS011;9505;50.882;5.350;2023-06-14T08:15:08;38.08;;;8.00;;
18752;SDS011;9505;50.882;5.350;2023-06-14T08:17:34;38.35;;;8.38;;
18752;SDS011;9505;50.882;5.350;2023-06-14T08:20:00;35.33;;;7.97;;
18752;SDS011;9505;50.882;5.350;2023-06-14T08:22:25;38.15;;;8.10;;
18752;SDS011;9505;50.882;5.350;2023-06-14T08:24:53;36.97;;;8.00;;
18752;SDS011;9505;50.882;5.350;2023-06-14T08:27:19;36.20;;;7.25;;
18752;SDS011;9505;50.882;5.350;2023-06-14T08:29:45;31.27;;;6.80;;
18752;SDS011;9505;50.882;5.350;2023-06-14T08:32:11;34.13;;;6.88;;
18752;SDS011;9505;50.882;5.350;2023-06-14T08:34:37;37.72;;;7.35;;
18752;SDS011;9505;50.882;5.350;2023-06-14T08:37:03;41.83;;;7.80;;
18752;SDS011;9505;50.882;5.350;2023-06-14T08:39:28;51.13;;;7.90;;
18752;SDS011;9505;50.882;5.350;2023-06-14T08:41:54;45.45;;;7.55;;
18752;SDS011;9505;50.882;5.350;2023-06-14T08:44:21;39.90;;;7.03;;
18752;SDS011;9505;50.882;5.350;2023-06-14T08:46:47;44.92;;;7.45;;
18752;SDS011;9505;50.882;5.350;2023-06-14T08:49:13;32.03;;;6.72;;
18752;SDS011;9505;50.882;5.350;2023-06-14T08:51:42;36.17;;;6.50;;
18752;SDS011;9505;50.882;5.350;2023-06-14T08:54:08;34.42;;;6.43;;
18752;SDS011;9505;50.882;5.350;2023-06-14T08:56:37;33.05;;;6.13;;
18752;SDS011;9505;50.882;5.350;2023-06-14T08:59:03;37.42;;;6.72;;
18752;SDS011;9505;50.882;5.350;2023-06-14T09:01:33;55.25;;;7.43;;
18752;SDS011;9505;50.882;5.350;2023-06-14T09:03:59;34.20;;;5.97;;
18752;SDS011;9505;50.882;5.350;2023-06-14T09:06:27;40.50;;;6.80;;
18752;SDS011;9505;50.882;5.350;2023-06-14T09:08:54;37.15;;;6.30;;
18752;SDS011;9505;50.882;5.350;2023-06-14T09:11:23;39.38;;;6.22;;
18752;SDS011;9505;50.882;5.350;2023-06-14T09:13:49;41.08;;;6.72;;
18752;SDS011;9505;50.882;5.350;2023-06-14T09:16:15;43.88;;;6.97;;
18752;SDS011;9505;50.882;5.350;2023-06-14T09:18:43;46.00;;;7.28;;
18752;SDS011;9505;50.882;5.350;2023-06-14T09:21:16;40.38;;;7.10;;
18752;SDS011;9505;50.882;5.350;2023-06-14T09:23:43;39.20;;;6.75;;
18752;SDS011;9505;50.882;5.350;2023-06-14T09:26:10;48.20;;;7.35;;
18752;SDS011;9505;50.882;5.350;2023-06-14T09:28:37;33.80;;;6.05;;
18752;SDS011;9505;50.882;5.350;2023-06-14T09:31:16;41.28;;;7.05;;
18752;SDS011;9505;50.882;5.350;2023-06-14T09:33:47;35.28;;;6.35;;
18752;SDS011;9505;50.882;5.350;2023-06-14T09:36:23;38.45;;;6.65;;
18752;SDS011;9505;50.882;5.350;2023-06-14T09:41:19;32.75;;;5.95;;
18752;SDS011;9505;50.882;5.350;2023-06-14T09:43:46;31.27;;;5.68;;
18752;SDS011;9505;50.882;5.350;2023-06-14T09:46:14;30.98;;;5.45;;
18752;SDS011;9505;50.882;5.350;2023-06-14T09:48:41;27.67;;;4.93;;
18752;SDS011;9505;50.882;5.350;2023-06-14T09:51:09;41.85;;;5.70;;
18752;SDS011;9505;50.882;5.350;2023-06-14T09:53:35;35.60;;;6.25;;
18752;SDS011;9505;50.882;5.350;2023-06-14T09:56:02;30.67;;;4.75;;
18752;SDS011;9505;50.882;5.350;2023-06-14T09:58:30;33.15;;;5.70;;
18752;SDS011;9505;50.882;5.350;2023-06-14T10:00:57;35.72;;;5.50;;
18752;SDS011;9505;50.882;5.350;2023-06-14T10:03:25;35.53;;;5.32;;
18752;SDS011;9505;50.882;5.350;2023-06-14T10:05:53;35.67;;;5.72;;
18752;SDS011;9505;50.882;5.350;2023-06-14T10:08:25;32.20;;;5.15;;
18752;SDS011;9505;50.882;5.350;2023-06-14T10:10:53;31.67;;;5.32;;
18752;SDS011;9505;50.882;5.350;2023-06-14T10:13:20;31.88;;;5.30;;
18752;SDS011;9505;50.882;5.350;2023-06-14T10:23:50;34.25;;;5.35;;
18752;SDS011;9505;50.882;5.350;2023-06-14T10:26:18;35.92;;;5.47;;
18752;SDS011;9505;50.882;5.350;2023-06-14T10:28:54;33.35;;;5.10;;
18752;SDS011;9505;50.882;5.350;2023-06-14T10:31:45;31.38;;;4.97;;
18752;SDS011;9505;50.882;5.350;2023-06-14T10:34:25;31.42;;;5.32;;
18752;SDS011;9505;50.882;5.350;2023-06-14T10:37:04;34.55;;;5.78;;
18752;SDS011;9505;50.882;5.350;2023-06-14T10:39:40;15.70;;;3.78;;
18752;SDS011;9505;50.882;5.350;2023-06-14T10:42:07;28.63;;;5.32;;
18752;SDS011;9505;50.882;5.350;2023-06-14T10:44:42;35.13;;;5.40;;
18752;SDS011;9505;50.882;5.350;2023-06-14T10:47:11;31.95;;;5.35;;
18752;SDS011;9505;50.882;5.350;2023-06-14T10:52:27;34.88;;;5.55;;
18752;SDS011;9505;50.882;5.350;2023-06-14T10:57:36;31.45;;;5.38;;
18752;SDS011;9505;50.882;5.350;2023-06-14T11:00:04;38.15;;;5.35;;
18752;SDS011;9505;50.882;5.350;2023-06-14T11:02:46;35.33;;;5.28;;
18752;SDS011;9505;50.882;5.350;2023-06-14T11:05:30;36.47;;;5.47;;
18752;SDS011;9505;50.882;5.350;2023-06-14T11:11:08;36.08;;;5.93;;
18752;SDS011;9505;50.882;5.350;2023-06-14T11:13:36;34.95;;;6.03;;
18752;SDS011;9505;50.882;5.350;2023-06-14T11:16:09;40.13;;;6.78;;
18752;SDS011;9505;50.882;5.350;2023-06-14T11:18:40;29.83;;;5.68;;
18752;SDS011;9505;50.882;5.350;2023-06-14T11:21:06;28.45;;;5.22;;
18752;SDS011;9505;50.882;5.350;2023-06-14T11:23:33;25.50;;;4.47;;
18752;SDS011;9505;50.882;5.350;2023-06-14T11:25:59;30.13;;;4.80;;
18752;SDS011;9505;50.882;5.350;2023-06-14T11:28:35;34.00;;;5.55;;
18752;SDS011;9505;50.882;5.350;2023-06-14T11:31:05;30.70;;;4.97;;
18752;SDS011;9505;50.882;5.350;2023-06-14T11:33:31;36.15;;;5.53;;
18752;SDS011;9505;50.882;5.350;2023-06-14T11:35:57;21.25;;;4.05;;
18752;SDS011;9505;50.882;5.350;2023-06-14T11:38:23;32.88;;;4.70;;
18752;SDS011;9505;50.882;5.350;2023-06-14T11:40:49;28.73;;;4.50;;
18752;SDS011;9505;50.882;5.350;2023-06-14T11:43:15;30.83;;;4.35;;
18752;SDS011;9505;50.882;5.350;2023-06-14T11:45:42;22.80;;;3.42;;
18752;SDS011;9505;50.882;5.350;2023-06-14T11:48:07;21.80;;;3.67;;
18752;SDS011;9505;50.882;5.350;2023-06-14T11:50:33;29.25;;;4.22;;
18752;SDS011;9505;50.882;5.350;2023-06-14T11:53:03;23.80;;;3.53;;
18752;SDS011;9505;50.882;5.350;2023-06-14T11:55:35;48.03;;;5.85;;
18752;SDS011;9505;50.882;5.350;2023-06-14T11:58:05;28.80;;;4.35;;
18752;SDS011;9505;50.882;5.350;2023-06-14T12:00:31;29.15;;;4.18;;
18752;SDS011;9505;50.882;5.350;2023-06-14T12:02:57;33.58;;;4.63;;
18752;SDS011;9505;50.882;5.350;2023-06-14T12:05:23;31.30;;;4.78;;
18752;SDS011;9505;50.882;5.350;2023-06-14T12:07:50;24.83;;;3.85;;
18752;SDS011;9505;50.882;5.350;2023-06-14T12:10:18;31.50;;;4.30;;
18752;SDS011;9505;50.882;5.350;2023-06-14T12:12:44;29.75;;;4.25;;
18752;SDS011;9505;50.882;5.350;2023-06-14T12:15:10;25.88;;;3.75;;
18752;SDS011;9505;50.882;5.350;2023-06-14T12:17:37;26.90;;;4.20;;
18752;SDS011;9505;50.882;5.350;2023-06-14T12:20:07;22.38;;;3.60;;
18752;SDS011;9505;50.882;5.350;2023-06-14T12:22:56;26.48;;;4.20;;
18752;SDS011;9505;50.882;5.350;2023-06-14T12:25:25;21.73;;;3.75;;
18752;SDS011;9505;50.882;5.350;2023-06-14T12:27:52;27.88;;;4.88;;
18752;SDS011;9505;50.882;5.350;2023-06-14T12:30:21;23.85;;;3.70;;
18752;SDS011;9505;50.882;5.350;2023-06-14T12:32:46;25.88;;;4.05;;
18752;SDS011;9505;50.882;5.350;2023-06-14T12:35:13;26.05;;;4.45;;
18752;SDS011;9505;50.882;5.350;2023-06-14T12:37:39;27.20;;;4.03;;
18752;SDS011;9505;50.882;5.350;2023-06-14T12:40:05;33.30;;;4.53;;
18752;SDS011;9505;50.882;5.350;2023-06-14T12:42:31;25.80;;;3.90;;
18752;SDS011;9505;50.882;5.350;2023-06-14T12:44:58;25.05;;;3.90;;
18752;SDS011;9505;50.882;5.350;2023-06-14T12:47:24;26.50;;;4.25;;
18752;SDS011;9505;50.882;5.350;2023-06-14T12:49:50;24.20;;;3.83;;
18752;SDS011;9505;50.882;5.350;2023-06-14T12:52:15;31.58;;;4.82;;
18752;SDS011;9505;50.882;5.350;2023-06-14T12:54:41;30.80;;;4.45;;
18752;SDS011;9505;50.882;5.350;2023-06-14T12:57:06;25.23;;;4.28;;
18752;SDS011;9505;50.882;5.350;2023-06-14T12:59:32;29.15;;;4.43;;
18752;SDS011;9505;50.882;5.350;2023-06-14T13:02:12;30.40;;;4.25;;
18752;SDS011;9505;50.882;5.350;2023-06-14T13:04:38;29.95;;;4.57;;
18752;SDS011;9505;50.882;5.350;2023-06-14T13:07:04;25.38;;;4.07;;
18752;SDS011;9505;50.882;5.350;2023-06-14T13:09:30;21.88;;;3.92;;
18752;SDS011;9505;50.882;5.350;2023-06-14T13:11:56;23.27;;;3.90;;
18752;SDS011;9505;50.882;5.350;2023-06-14T13:14:21;28.95;;;4.45;;
18752;SDS011;9505;50.882;5.350;2023-06-14T13:16:47;109.35;;;14.93;;
18752;SDS011;9505;50.882;5.350;2023-06-14T13:19:13;30.10;;;4.30;;
18752;SDS011;9505;50.882;5.350;2023-06-14T13:21:39;60.63;;;8.15;;
18752;SDS011;9505;50.882;5.350;2023-06-14T13:24:04;52.95;;;6.72;;
18752;SDS011;9505;50.882;5.350;2023-06-14T13:26:30;27.63;;;4.35;;
18752;SDS011;9505;50.882;5.350;2023-06-14T13:28:56;29.52;;;4.60;;
18752;SDS011;9505;50.882;5.350;2023-06-14T13:31:21;55.53;;;7.75;;
18752;SDS011;9505;50.882;5.350;2023-06-14T13:33:47;59.17;;;8.45;;
18752;SDS011;9505;50.882;5.350;2023-06-14T13:36:12;34.38;;;5.50;;
18752;SDS011;9505;50.882;5.350;2023-06-14T13:38:38;28.83;;;4.78;;
18752;SDS011;9505;50.882;5.350;2023-06-14T13:41:04;48.08;;;7.30;;
18752;SDS011;9505;50.882;5.350;2023-06-14T13:43:30;59.70;;;8.50;;
18752;SDS011;9505;50.882;5.350;2023-06-14T13:45:55;28.65;;;4.75;;
18752;SDS011;9505;50.882;5.350;2023-06-14T13:48:21;23.88;;;4.10;;
18752;SDS011;9505;50.882;5.350;2023-06-14T13:50:47;56.53;;;7.80;;
18752;SDS011;9505;50.882;5.350;2023-06-14T13:53:13;53.33;;;7.70;;
18752;SDS011;9505;50.882;5.350;2023-06-14T13:55:39;29.08;;;4.88;;
18752;SDS011;9505;50.882;5.350;2023-06-14T13:58:04;10.82;;;2.75;;
18752;SDS011;9505;50.882;5.350;2023-06-14T14:00:30;52.88;;;7.72;;
18752;SDS011;9505;50.882;5.350;2023-06-14T14:02:56;48.20;;;7.15;;
18752;SDS011;9505;50.882;5.350;2023-06-14T14:05:22;26.95;;;4.78;;
18752;SDS011;9505;50.882;5.350;2023-06-14T14:07:53;21.67;;;3.78;;
18752;SDS011;9505;50.882;5.350;2023-06-14T14:10:19;26.20;;;4.38;;
18752;SDS011;9505;50.882;5.350;2023-06-14T14:12:45;53.65;;;8.02;;
18752;SDS011;9505;50.882;5.350;2023-06-14T14:15:11;55.88;;;7.97;;
18752;SDS011;9505;50.882;5.350;2023-06-14T14:17:39;24.75;;;4.38;;
18752;SDS011;9505;50.882;5.350;2023-06-14T14:20:06;24.23;;;4.13;;
18752;SDS011;9505;50.882;5.350;2023-06-14T14:22:32;39.00;;;6.28;;
18752;SDS011;9505;50.882;5.350;2023-06-14T14:24:58;50.33;;;7.90;;
18752;SDS011;9505;50.882;5.350;2023-06-14T14:27:23;31.55;;;5.05;;
18752;SDS011;9505;50.882;5.350;2023-06-14T14:29:49;29.77;;;4.78;;
18752;SDS011;9505;50.882;5.350;2023-06-14T14:32:15;56.05;;;8.00;;
18752;SDS011;9505;50.882;5.350;2023-06-14T14:34:40;52.05;;;7.43;;
18752;SDS011;9505;50.882;5.350;2023-06-14T14:37:06;30.60;;;4.78;;
18752;SDS011;9505;50.882;5.350;2023-06-14T14:39:31;22.00;;;3.97;;
18752;SDS011;9505;50.882;5.350;2023-06-14T14:41:57;58.85;;;7.97;;
18752;SDS011;9505;50.882;5.350;2023-06-14T14:44:23;45.75;;;6.97;;
18752;SDS011;9505;50.882;5.350;2023-06-14T14:46:49;30.65;;;5.03;;
18752;SDS011;9505;50.882;5.350;2023-06-14T14:49:14;35.38;;;5.28;;
18752;SDS011;9505;50.882;5.350;2023-06-14T14:51:40;48.17;;;7.35;;
18752;SDS011;9505;50.882;5.350;2023-06-14T14:54:07;40.70;;;6.43;;
18752;SDS011;9505;50.882;5.350;2023-06-14T14:56:32;24.67;;;4.07;;
18752;SDS011;9505;50.882;5.350;2023-06-14T14:59:00;26.52;;;4.32;;
18752;SDS011;9505;50.882;5.350;2023-06-14T15:01:25;42.33;;;7.25;;
18752;SDS011;9505;50.882;5.350;2023-06-14T15:03:51;44.85;;;6.95;;
18752;SDS011;9505;50.882;5.350;2023-06-14T15:06:17;29.80;;;4.30;;